F/V L Ocarina — FGRL — position and weather

sailwx.info

Track history (hours):
 
Tides and Currents Weather Stations Pressure Air Temp Water Temp Dewpoint Dewpoint Depression Visibility Wind Speed Wind Dir Waves Ship Positions

F/V L Ocarina

Last reported at 2018-Apr-25 00:58 UTC. Time now 2018-Apr-25 12:46 UTC.
Position N 47°43' W 003°55'.

Length 16 m.

Type: Fishing. MMSI: 228126000.

Date/timePositionNaut miles runAvg speedWind from/ knotsBaromVisibWave heightAir tempDewpointWater temp
2018-Apr-25 00:58N 47°43' W 003°55'8 2.2
2018-Apr-24 21:09N 47°37' W 003°48'9 1.1
2018-Apr-24 12:54N 47°35' W 004°01'4 3.3
2018-Apr-24 11:34N 47°34' W 003°55'0 3.6
2018-Apr-24 11:30N 47°34' W 003°55'2 3.1
2018-Apr-24 10:53N 47°33' W 003°52'0 0.9
2018-Apr-24 10:30N 47°34' W 003°52'2 3.0
2018-Apr-24 09:48N 47°32' W 003°50'1 2.0
2018-Apr-24 09:11N 47°32' W 003°51'1 3.1
2018-Apr-24 08:44N 47°33' W 003°50'1 2.5
2018-Apr-24 08:11N 47°33' W 003°52'1 3.0
2018-Apr-24 07:52N 47°33' W 003°51'2 2.8
2018-Apr-24 07:10N 47°34' W 003°53'0 1.9
2018-Apr-24 07:00N 47°34' W 003°53'2 1.7
2018-Apr-24 06:00N 47°32' W 003°52'1 0.7
2018-Apr-24 04:54N 47°32' W 003°51'2 3.8
2018-Apr-24 04:30N 47°31' W 003°50'3 2.8
2018-Apr-24 03:30N 47°28' W 003°49'2 3.4
2018-Apr-24 02:57N 47°30' W 003°49'5 6.5
2018-Apr-24 02:16N 47°34' W 003°50'18 8.0
2018-Apr-23 23:58N 47°52' W 003°55'2 2.5
2018-Apr-23 23:07N 47°50' W 003°55'2 8.0
2018-Apr-23 22:55N 47°49' W 003°55'3 7.9
2018-Apr-23 22:30N 47°46' W 003°53'4 7.8
2018-Apr-23 21:57N 47°42' W 003°49'4 8.0
2018-Apr-23 21:29N 47°39' W 003°47'4 8.3
2018-Apr-23 21:00N 47°35' W 003°45'6 2.6
2018-Apr-23 18:50N 47°32' W 003°51'2 0.8
2018-Apr-23 16:37N 47°34' W 003°53'0 3.5
2018-Apr-23 16:30N 47°33' W 003°52'0 0.0
2018-Apr-23 10:19N 47°33' W 003°52'1 2.8
2018-Apr-23 09:54N 47°33' W 003°51'1 1.8
2018-Apr-23 09:18N 47°33' W 003°52'1 2.7
2018-Apr-23 08:54N 47°33' W 003°51'18 3.0
2018-Apr-23 02:58N 47°43' W 004°12'5 0.6
2018-Apr-22 17:49N 47°48' W 004°17'0 0.0
2018-Apr-22 17:30N 47°48' W 004°17'0 0.0
2018-Apr-22 13:00N 47°48' W 004°17'0 0.0
2018-Apr-22 12:27N 47°48' W 004°17'0 0.0
2018-Apr-22 10:58N 47°48' W 004°17'0 0.0
2018-Apr-22 09:50N 47°48' W 004°17'0 0.0
2018-Apr-21 23:21N 47°48' W 004°17'0 0.0
2018-Apr-21 23:00N 47°48' W 004°17'0 0.0
2018-Apr-21 22:30N 47°48' W 004°17'0 0.0
2018-Apr-21 22:00N 47°48' W 004°17'0 0.0
2018-Apr-21 21:29N 47°48' W 004°17'0 0.0
2018-Apr-21 20:58N 47°48' W 004°17'0 0.0
2018-Apr-21 20:18N 47°48' W 004°17'0 0.0
2018-Apr-21 20:00N 47°48' W 004°17'0 0.0
2018-Apr-21 19:30N 47°48' W 004°17'0 0.0
2018-Apr-21 19:00N 47°48' W 004°17'0 0.0
2018-Apr-21 18:30N 47°48' W 004°17'0 0.0
2018-Apr-21 18:00N 47°48' W 004°17'0 0.0
2018-Apr-21 17:30N 47°48' W 004°17'0 0.0
2018-Apr-21 17:00N 47°48' W 004°17'0 0.0
2018-Apr-21 16:28N 47°48' W 004°17'0 0.0
2018-Apr-21 15:52N 47°48' W 004°17'0 0.0
2018-Apr-21 06:58N 47°48' W 004°17'0 0.0
2018-Apr-21 00:58N 47°48' W 004°17'0 0.0
2018-Apr-21 00:29N 47°48' W 004°17'0 0.0
2018-Apr-20 23:58N 47°48' W 004°17'0 0.0
2018-Apr-20 21:58N 47°48' W 004°17'16 1.2
2018-Apr-20 09:12N 47°32' W 004°21'1 3.6
2018-Apr-20 09:00N 47°33' W 004°21'5 1.3
2018-Apr-20 04:56N 47°29' W 004°26'1 3.2
2018-Apr-20 04:30N 47°28' W 004°25'4 3.4
2018-Apr-20 03:18N 47°24' W 004°28'1 3.6
2018-Apr-20 02:58N 47°23' W 004°29'5 2.8
2018-Apr-20 01:20N 47°19' W 004°32'13 0.9
2018-Apr-19 10:54N 47°31' W 004°23'1 2.5
2018-Apr-19 10:26N 47°32' W 004°22'2 1.3
2018-Apr-19 08:58N 47°33' W 004°24'1 0.9
2018-Apr-19 08:10N 47°32' W 004°24'10 2.2
2018-Apr-19 03:44N 47°23' W 004°28'2 3.1
2018-Apr-19 03:06N 47°21' W 004°29'7 2.9
2018-Apr-19 00:30N 47°14' W 004°34'2 2.9
2018-Apr-18 23:58N 47°16' W 004°34'4 3.1
2018-Apr-18 22:41N 47°19' W 004°31'16 3.2
2018-Apr-18 17:51N 47°34' W 004°23'2 3.5
2018-Apr-18 17:24N 47°35' W 004°22'4 6.8
2018-Apr-18 16:53N 47°39' W 004°20'3 7.8
2018-Apr-18 16:28N 47°42' W 004°19'6 4.2
2018-Apr-18 15:03N 47°48' W 004°17'0 0.1
2018-Apr-18 14:59N 47°48' W 004°17'0 0.0
2018-Apr-18 14:30N 47°48' W 004°17'0 0.3
2018-Apr-18 13:54N 47°48' W 004°17'0 0.0
2018-Apr-18 13:30N 47°48' W 004°17'0 0.0
2018-Apr-18 12:51N 47°48' W 004°17'0 0.0
2018-Apr-18 06:12N 47°48' W 004°17'0 0.0
2018-Apr-18 05:42N 47°48' W 004°17'0 0.0
2018-Apr-18 05:16N 47°48' W 004°17'0 0.0
2018-Apr-18 04:48N 47°48' W 004°17'0 0.0
2018-Apr-18 04:11N 47°48' W 004°17'0 0.0
2018-Apr-18 03:58N 47°48' W 004°17'2 0.1
2018-Apr-17 08:58N 47°46' W 004°18'28 3.7
2018-Apr-17 01:32N 47°32' W 004°53'0 2.6
2018-Apr-17 01:22N 47°32' W 004°53'1 2.6
2018-Apr-17 01:00N 47°33' W 004°54'1 2.5
2018-Apr-17 00:30N 47°34' W 004°56'2 2.6
2018-Apr-16 23:50N 47°35' W 004°58'1 2.9
2018-Apr-16 23:30N 47°35' W 004°59'28 1.4
2018-Apr-16 03:58N 47°44' W 004°20'  
Track history (hours):
 
Tides and Currents Weather Stations Pressure Air Temp Water Temp Dewpoint Dewpoint Depression Visibility Wind Speed Wind Dir Waves Ship Positions

F/V L Ocarina

Last reported at 2018-Apr-25 00:58 UTC. Time now 2018-Apr-25 12:46 UTC.
Position N 47°43' W 003°55'.

Length 16 m.

Type: Fishing. MMSI: 228126000.

Date/timePositionNaut miles runAvg speedWind from/ knotsBaromVisibWave heightAir tempDewpointWater temp
2018-Apr-25 00:58N 47°43' W 003°55'8 2.2
2018-Apr-24 21:09N 47°37' W 003°48'9 1.1
2018-Apr-24 12:54N 47°35' W 004°01'4 3.3
2018-Apr-24 11:34N 47°34' W 003°55'0 3.6
2018-Apr-24 11:30N 47°34' W 003°55'2 3.1
2018-Apr-24 10:53N 47°33' W 003°52'0 0.9
2018-Apr-24 10:30N 47°34' W 003°52'2 3.0
2018-Apr-24 09:48N 47°32' W 003°50'1 2.0
2018-Apr-24 09:11N 47°32' W 003°51'1 3.1
2018-Apr-24 08:44N 47°33' W 003°50'1 2.5
2018-Apr-24 08:11N 47°33' W 003°52'1 3.0
2018-Apr-24 07:52N 47°33' W 003°51'2 2.8
2018-Apr-24 07:10N 47°34' W 003°53'0 1.9
2018-Apr-24 07:00N 47°34' W 003°53'2 1.7
2018-Apr-24 06:00N 47°32' W 003°52'1 0.7
2018-Apr-24 04:54N 47°32' W 003°51'2 3.8
2018-Apr-24 04:30N 47°31' W 003°50'3 2.8
2018-Apr-24 03:30N 47°28' W 003°49'2 3.4
2018-Apr-24 02:57N 47°30' W 003°49'5 6.5
2018-Apr-24 02:16N 47°34' W 003°50'18 8.0
2018-Apr-23 23:58N 47°52' W 003°55'2 2.5
2018-Apr-23 23:07N 47°50' W 003°55'2 8.0
2018-Apr-23 22:55N 47°49' W 003°55'3 7.9
2018-Apr-23 22:30N 47°46' W 003°53'4 7.8
2018-Apr-23 21:57N 47°42' W 003°49'4 8.0
2018-Apr-23 21:29N 47°39' W 003°47'4 8.3
2018-Apr-23 21:00N 47°35' W 003°45'6 2.6
2018-Apr-23 18:50N 47°32' W 003°51'2 0.8
2018-Apr-23 16:37N 47°34' W 003°53'0 3.5
2018-Apr-23 16:30N 47°33' W 003°52'0 0.0
2018-Apr-23 10:19N 47°33' W 003°52'1 2.8
2018-Apr-23 09:54N 47°33' W 003°51'1 1.8
2018-Apr-23 09:18N 47°33' W 003°52'1 2.7
2018-Apr-23 08:54N 47°33' W 003°51'18 3.0
2018-Apr-23 02:58N 47°43' W 004°12'5 0.6
2018-Apr-22 17:49N 47°48' W 004°17'0 0.0
2018-Apr-22 17:30N 47°48' W 004°17'0 0.0
2018-Apr-22 13:00N 47°48' W 004°17'0 0.0
2018-Apr-22 12:27N 47°48' W 004°17'0 0.0
2018-Apr-22 10:58N 47°48' W 004°17'0 0.0
2018-Apr-22 09:50N 47°48' W 004°17'0 0.0
2018-Apr-21 23:21N 47°48' W 004°17'0 0.0
2018-Apr-21 23:00N 47°48' W 004°17'0 0.0
2018-Apr-21 22:30N 47°48' W 004°17'0 0.0
2018-Apr-21 22:00N 47°48' W 004°17'0 0.0
2018-Apr-21 21:29N 47°48' W 004°17'0 0.0
2018-Apr-21 20:58N 47°48' W 004°17'0 0.0
2018-Apr-21 20:18N 47°48' W 004°17'0 0.0
2018-Apr-21 20:00N 47°48' W 004°17'0 0.0
2018-Apr-21 19:30N 47°48' W 004°17'0 0.0
2018-Apr-21 19:00N 47°48' W 004°17'0 0.0
2018-Apr-21 18:30N 47°48' W 004°17'0 0.0
2018-Apr-21 18:00N 47°48' W 004°17'0 0.0
2018-Apr-21 17:30N 47°48' W 004°17'0 0.0
2018-Apr-21 17:00N 47°48' W 004°17'0 0.0
2018-Apr-21 16:28N 47°48' W 004°17'0 0.0
2018-Apr-21 15:52N 47°48' W 004°17'0 0.0
2018-Apr-21 06:58N 47°48' W 004°17'0 0.0
2018-Apr-21 00:58N 47°48' W 004°17'0 0.0
2018-Apr-21 00:29N 47°48' W 004°17'0 0.0
2018-Apr-20 23:58N 47°48' W 004°17'0 0.0
2018-Apr-20 21:58N 47°48' W 004°17'16 1.2
2018-Apr-20 09:12N 47°32' W 004°21'1 3.6
2018-Apr-20 09:00N 47°33' W 004°21'5 1.3
2018-Apr-20 04:56N 47°29' W 004°26'1 3.2
2018-Apr-20 04:30N 47°28' W 004°25'4 3.4
2018-Apr-20 03:18N 47°24' W 004°28'1 3.6
2018-Apr-20 02:58N 47°23' W 004°29'5 2.8
2018-Apr-20 01:20N 47°19' W 004°32'13 0.9
2018-Apr-19 10:54N 47°31' W 004°23'1 2.5
2018-Apr-19 10:26N 47°32' W 004°22'2 1.3
2018-Apr-19 08:58N 47°33' W 004°24'1 0.9
2018-Apr-19 08:10N 47°32' W 004°24'10 2.2
2018-Apr-19 03:44N 47°23' W 004°28'2 3.1
2018-Apr-19 03:06N 47°21' W 004°29'7 2.9
2018-Apr-19 00:30N 47°14' W 004°34'2 2.9
2018-Apr-18 23:58N 47°16' W 004°34'4 3.1
2018-Apr-18 22:41N 47°19' W 004°31'16 3.2
2018-Apr-18 17:51N 47°34' W 004°23'2 3.5
2018-Apr-18 17:24N 47°35' W 004°22'4 6.8
2018-Apr-18 16:53N 47°39' W 004°20'3 7.8
2018-Apr-18 16:28N 47°42' W 004°19'6 4.2
2018-Apr-18 15:03N 47°48' W 004°17'0 0.1
2018-Apr-18 14:59N 47°48' W 004°17'0 0.0
2018-Apr-18 14:30N 47°48' W 004°17'0 0.3
2018-Apr-18 13:54N 47°48' W 004°17'0 0.0
2018-Apr-18 13:30N 47°48' W 004°17'0 0.0
2018-Apr-18 12:51N 47°48' W 004°17'0 0.0
2018-Apr-18 06:12N 47°48' W 004°17'0 0.0
2018-Apr-18 05:42N 47°48' W 004°17'0 0.0
2018-Apr-18 05:16N 47°48' W 004°17'0 0.0
2018-Apr-18 04:48N 47°48' W 004°17'0 0.0
2018-Apr-18 04:11N 47°48' W 004°17'0 0.0
2018-Apr-18 03:58N 47°48' W 004°17'2 0.1
2018-Apr-17 08:58N 47°46' W 004°18'28 3.7
2018-Apr-17 01:32N 47°32' W 004°53'0 2.6
2018-Apr-17 01:22N 47°32' W 004°53'1 2.6
2018-Apr-17 01:00N 47°33' W 004°54'1 2.5
2018-Apr-17 00:30N 47°34' W 004°56'2 2.6
2018-Apr-16 23:50N 47°35' W 004°58'1 2.9
2018-Apr-16 23:30N 47°35' W 004°59'28 1.4
2018-Apr-16 03:58N 47°44' W 004°20'  

Dump ship's entire track history